sensor_id;sensor_type;location;lat;lon;timestamp;P1;P2;P0
61804;PMS7003;47725;47.912;7.356;2023-07-28T00:01:44;2.82;2.82;
61804;PMS7003;47725;47.912;7.356;2023-07-28T00:05:44;2.81;0.94;
61804;PMS7003;47725;47.912;7.356;2023-07-28T00:09:44;2.81;0.94;
61804;PMS7003;47725;47.912;7.356;2023-07-28T00:13:44;1.87;0.94;
61804;PMS7003;47725;47.912;7.356;2023-07-28T00:17:44;1.87;0.94;
61804;PMS7003;47725;47.912;7.356;2023-07-28T00:21:44;1.87;0.94;
61804;PMS7003;47725;47.912;7.356;2023-07-28T00:25:44;1.87;1.87;
61804;PMS7003;47725;47.912;7.356;2023-07-28T00:29:44;1.87;1.87;
61804;PMS7003;47725;47.912;7.356;2023-07-28T00:33:44;1.86;1.86;
61804;PMS7003;47725;47.912;7.356;2023-07-28T00:37:44;1.86;1.86;
61804;PMS7003;47725;47.912;7.356;2023-07-28T00:41:45;1.86;1.86;
61804;PMS7003;47725;47.912;7.356;2023-07-28T00:45:44;1.86;0.93;
61804;PMS7003;47725;47.912;7.356;2023-07-28T00:49:44;1.86;0.93;
61804;PMS7003;47725;47.912;7.356;2023-07-28T00:53:44;0.93;0.93;
61804;PMS7003;47725;47.912;7.356;2023-07-28T00:57:44;0.93;0.93;
61804;PMS7003;47725;47.912;7.356;2023-07-28T01:01:44;0.93;0.93;
61804;PMS7003;47725;47.912;7.356;2023-07-28T01:09:52;0.93;0.93;
61804;PMS7003;47725;47.912;7.356;2023-07-28T01:13:45;0.93;0.93;
61804;PMS7003;47725;47.912;7.356;2023-07-28T01:17:44;0.93;0.93;
61804;PMS7003;47725;47.912;7.356;2023-07-28T01:21:45;0.93;0.93;
61804;PMS7003;47725;47.912;7.356;2023-07-28T01:26:03;1.85;0.92;
61804;PMS7003;47725;47.912;7.356;2023-07-28T01:29:44;1.85;0.92;
61804;PMS7003;47725;47.912;7.356;2023-07-28T01:33:44;2.77;1.85;
61804;PMS7003;47725;47.912;7.356;2023-07-28T01:37:44;2.77;1.85;
61804;PMS7003;47725;47.912;7.356;2023-07-28T01:41:44;2.77;1.85;
61804;PMS7003;47725;47.912;7.356;2023-07-28T01:45:44;0.92;0.92;
61804;PMS7003;47725;47.912;7.356;2023-07-28T01:49:44;0.92;0.92;
61804;PMS7003;47725;47.912;7.356;2023-07-28T01:53:44;1.84;1.84;
61804;PMS7003;47725;47.912;7.356;2023-07-28T01:57:51;1.84;1.84;
61804;PMS7003;47725;47.912;7.356;2023-07-28T02:01:44;1.84;1.84;
61804;PMS7003;47725;47.912;7.356;2023-07-28T02:05:44;1.83;1.83;
61804;PMS7003;47725;47.912;7.356;2023-07-28T02:09:44;1.83;1.83;
61804;PMS7003;47725;47.912;7.356;2023-07-28T02:13:44;2.73;2.73;
61804;PMS7003;47725;47.912;7.356;2023-07-28T02:17:44;2.73;2.73;
61804;PMS7003;47725;47.912;7.356;2023-07-28T02:21:44;2.73;2.73;
61804;PMS7003;47725;47.912;7.356;2023-07-28T02:25:44;2.73;2.73;
61804;PMS7003;47725;47.912;7.356;2023-07-28T02:29:44;2.73;2.73;
61804;PMS7003;47725;47.912;7.356;2023-07-28T02:33:44;1.81;1.81;
61804;PMS7003;47725;47.912;7.356;2023-07-28T02:37:44;1.81;1.81;
61804;PMS7003;47725;47.912;7.356;2023-07-28T02:41:44;1.81;1.81;
61804;PMS7003;47725;47.912;7.356;2023-07-28T02:45:47;5.43;5.43;
61804;PMS7003;47725;47.912;7.356;2023-07-28T02:49:44;5.43;5.43;
61804;PMS7003;47725;47.912;7.356;2023-07-28T02:53:44;3.62;3.62;
61804;PMS7003;47725;47.912;7.356;2023-07-28T02:57:44;3.62;3.62;
61804;PMS7003;47725;47.912;7.356;2023-07-28T03:01:44;3.62;3.62;
61804;PMS7003;47725;47.912;7.356;2023-07-28T03:05:44;4.49;2.70;
61804;PMS7003;47725;47.912;7.356;2023-07-28T03:09:44;4.49;2.70;
61804;PMS7003;47725;47.912;7.356;2023-07-28T03:13:44;3.59;3.59;
61804;PMS7003;47725;47.912;7.356;2023-07-28T03:17:44;3.59;3.59;
61804;PMS7003;47725;47.912;7.356;2023-07-28T03:21:44;3.59;3.59;
61804;PMS7003;47725;47.912;7.356;2023-07-28T03:25:44;3.58;3.58;
61804;PMS7003;47725;47.912;7.356;2023-07-28T03:29:44;3.58;3.58;
61804;PMS7003;47725;47.912;7.356;2023-07-28T03:33:44;3.59;3.59;
61804;PMS7003;47725;47.912;7.356;2023-07-28T03:37:44;3.59;3.59;
61804;PMS7003;47725;47.912;7.356;2023-07-28T03:41:44;3.59;3.59;
61804;PMS7003;47725;47.912;7.356;2023-07-28T03:45:44;5.37;3.58;
61804;PMS7003;47725;47.912;7.356;2023-07-28T03:49:44;5.37;3.58;
61804;PMS7003;47725;47.912;7.356;2023-07-28T03:53:44;3.56;3.56;
61804;PMS7003;47725;47.912;7.356;2023-07-28T03:57:44;3.56;3.56;
61804;PMS7003;47725;47.912;7.356;2023-07-28T04:01:44;3.56;3.56;
61804;PMS7003;47725;47.912;7.356;2023-07-28T04:05:44;5.33;5.33;
61804;PMS7003;47725;47.912;7.356;2023-07-28T04:09:44;5.33;5.33;
61804;PMS7003;47725;47.912;7.356;2023-07-28T04:13:44;3.57;3.57;
61804;PMS7003;47725;47.912;7.356;2023-07-28T04:17:44;3.57;3.57;
61804;PMS7003;47725;47.912;7.356;2023-07-28T04:21:44;3.57;3.57;
61804;PMS7003;47725;47.912;7.356;2023-07-28T04:25:44;5.37;4.48;
61804;PMS7003;47725;47.912;7.356;2023-07-28T04:29:44;5.37;4.48;
61804;PMS7003;47725;47.912;7.356;2023-07-28T04:33:44;6.26;2.68;
61804;PMS7003;47725;47.912;7.356;2023-07-28T04:37:44;6.26;2.68;
61804;PMS7003;47725;47.912;7.356;2023-07-28T04:41:44;6.26;2.68;
61804;PMS7003;47725;47.912;7.356;2023-07-28T04:45:44;5.36;5.36;
61804;PMS7003;47725;47.912;7.356;2023-07-28T04:49:44;5.36;5.36;
61804;PMS7003;47725;47.912;7.356;2023-07-28T04:53:44;3.57;3.57;
61804;PMS7003;47725;47.912;7.356;2023-07-28T04:57:44;3.57;3.57;
61804;PMS7003;47725;47.912;7.356;2023-07-28T05:01:44;3.57;3.57;
61804;PMS7003;47725;47.912;7.356;2023-07-28T05:05:44;4.45;4.45;
61804;PMS7003;47725;47.912;7.356;2023-07-28T05:09:44;4.45;4.45;
61804;PMS7003;47725;47.912;7.356;2023-07-28T05:13:44;2.68;2.68;
61804;PMS7003;47725;47.912;7.356;2023-07-28T05:17:44;2.68;2.68;
61804;PMS7003;47725;47.912;7.356;2023-07-28T05:21:44;2.68;2.68;
61804;PMS7003;47725;47.912;7.356;2023-07-28T05:25:44;1.80;1.80;
61804;PMS7003;47725;47.912;7.356;2023-07-28T05:29:44;1.80;1.80;
61804;PMS7003;47725;47.912;7.356;2023-07-28T05:33:44;1.81;1.81;
61804;PMS7003;47725;47.912;7.356;2023-07-28T05:37:44;1.81;1.81;
61804;PMS7003;47725;47.912;7.356;2023-07-28T05:41:44;1.81;1.81;
61804;PMS7003;47725;47.912;7.356;2023-07-28T05:45:47;4.54;2.72;
61804;PMS7003;47725;47.912;7.356;2023-07-28T05:49:44;4.54;2.72;
61804;PMS7003;47725;47.912;7.356;2023-07-28T05:53:44;2.73;2.73;
61804;PMS7003;47725;47.912;7.356;2023-07-28T05:57:44;2.73;2.73;
61804;PMS7003;47725;47.912;7.356;2023-07-28T06:01:44;2.73;2.73;
61804;PMS7003;47725;47.912;7.356;2023-07-28T06:05:44;3.64;3.64;
61804;PMS7003;47725;47.912;7.356;2023-07-28T06:09:44;3.64;3.64;
61804;PMS7003;47725;47.912;7.356;2023-07-28T06:13:44;3.63;2.73;
61804;PMS7003;47725;47.912;7.356;2023-07-28T06:17:44;3.63;2.73;
61804;PMS7003;47725;47.912;7.356;2023-07-28T06:21:44;3.63;2.73;
61804;PMS7003;47725;47.912;7.356;2023-07-28T06:25:44;1.82;1.82;
61804;PMS7003;47725;47.912;7.356;2023-07-28T06:29:44;1.82;1.82;
61804;PMS7003;47725;47.912;7.356;2023-07-28T06:33:44;3.65;3.65;
61804;PMS7003;47725;47.912;7.356;2023-07-28T06:37:44;3.65;3.65;
61804;PMS7003;47725;47.912;7.356;2023-07-28T06:41:44;3.65;3.65;
61804;PMS7003;47725;47.912;7.356;2023-07-28T06:45:44;3.65;3.65;
61804;PMS7003;47725;47.912;7.356;2023-07-28T06:49:44;3.65;3.65;
61804;PMS7003;47725;47.912;7.356;2023-07-28T06:53:44;5.49;3.66;
61804;PMS7003;47725;47.912;7.356;2023-07-28T06:57:44;5.49;3.66;
61804;PMS7003;47725;47.912;7.356;2023-07-28T07:01:44;5.49;3.66;
61804;PMS7003;47725;47.912;7.356;2023-07-28T07:05:44;2.75;2.75;
61804;PMS7003;47725;47.912;7.356;2023-07-28T07:09:44;2.75;2.75;
61804;PMS7003;47725;47.912;7.356;2023-07-28T07:13:44;4.60;4.60;
61804;PMS7003;47725;47.912;7.356;2023-07-28T07:17:44;4.60;4.60;
61804;PMS7003;47725;47.912;7.356;2023-07-28T07:21:44;4.60;4.60;
61804;PMS7003;47725;47.912;7.356;2023-07-28T07:25:44;1.85;1.85;
61804;PMS7003;47725;47.912;7.356;2023-07-28T07:29:44;1.85;1.85;
61804;PMS7003;47725;47.912;7.356;2023-07-28T07:33:44;4.64;3.71;
61804;PMS7003;47725;47.912;7.356;2023-07-28T07:37:44;4.64;3.71;
61804;PMS7003;47725;47.912;7.356;2023-07-28T07:41:44;4.64;3.71;
61804;PMS7003;47725;47.912;7.356;2023-07-28T07:45:44;2.79;2.79;
61804;PMS7003;47725;47.912;7.356;2023-07-28T07:49:44;2.79;2.79;
61804;PMS7003;47725;47.912;7.356;2023-07-28T07:53:44;4.66;3.73;
61804;PMS7003;47725;47.912;7.356;2023-07-28T07:57:44;4.66;3.73;
61804;PMS7003;47725;47.912;7.356;2023-07-28T08:01:44;4.66;3.73;
61804;PMS7003;47725;47.912;7.356;2023-07-28T08:05:44;2.80;0.93;
61804;PMS7003;47725;47.912;7.356;2023-07-28T08:09:44;2.80;0.93;
61804;PMS7003;47725;47.912;7.356;2023-07-28T08:13:44;2.81;1.87;
61804;PMS7003;47725;47.912;7.356;2023-07-28T08:17:44;2.81;1.87;
61804;PMS7003;47725;47.912;7.356;2023-07-28T08:21:44;2.81;1.87;
61804;PMS7003;47725;47.912;7.356;2023-07-28T08:25:44;0.94;0.94;
61804;PMS7003;47725;47.912;7.356;2023-07-28T08:29:44;0.94;0.94;
61804;PMS7003;47725;47.912;7.356;2023-07-28T08:33:44;0.96;0.96;
61804;PMS7003;47725;47.912;7.356;2023-07-28T08:37:44;0.96;0.96;
61804;PMS7003;47725;47.912;7.356;2023-07-28T08:41:44;0.96;0.96;
61804;PMS7003;47725;47.912;7.356;2023-07-28T08:45:44;1.91;1.91;
61804;PMS7003;47725;47.912;7.356;2023-07-28T08:49:44;1.91;1.91;
61804;PMS7003;47725;47.912;7.356;2023-07-28T08:53:44;1.92;1.92;
61804;PMS7003;47725;47.912;7.356;2023-07-28T08:57:44;1.92;1.92;
61804;PMS7003;47725;47.912;7.356;2023-07-28T09:01:43;1.92;1.92;
61804;PMS7003;47725;47.912;7.356;2023-07-28T09:05:44;0.97;0.97;
61804;PMS7003;47725;47.912;7.356;2023-07-28T09:09:43;0.97;0.97;
61804;PMS7003;47725;47.912;7.356;2023-07-28T09:13:43;0.98;0.98;
61804;PMS7003;47725;47.912;7.356;2023-07-28T09:17:44;0.98;0.98;
61804;PMS7003;47725;47.912;7.356;2023-07-28T09:21:44;0.98;0.98;
61804;PMS7003;47725;47.912;7.356;2023-07-28T09:25:43;0.98;0.98;
61804;PMS7003;47725;47.912;7.356;2023-07-28T09:29:47;0.98;0.98;
61804;PMS7003;47725;47.912;7.356;2023-07-28T09:33:43;0.98;0.98;
61804;PMS7003;47725;47.912;7.356;2023-07-28T09:37:44;0.98;0.98;
61804;PMS7003;47725;47.912;7.356;2023-07-28T09:41:43;0.98;0.98;
61804;PMS7003;47725;47.912;7.356;2023-07-28T09:45:43;0.98;0.98;
61804;PMS7003;47725;47.912;7.356;2023-07-28T09:49:45;0.98;0.98;
61804;PMS7003;47725;47.912;7.356;2023-07-28T09:53:48;1.97;1.97;
61804;PMS7003;47725;47.912;7.356;2023-07-28T09:57:50;1.97;1.97;
61804;PMS7003;47725;47.912;7.356;2023-07-28T10:01:44;1.97;1.97;
61804;PMS7003;47725;47.912;7.356;2023-07-28T10:05:43;3.95;1.97;
61804;PMS7003;47725;47.912;7.356;2023-07-28T10:09:43;3.95;1.97;
61804;PMS7003;47725;47.912;7.356;2023-07-28T10:13:44;1.98;1.98;
61804;PMS7003;47725;47.912;7.356;2023-07-28T10:17:44;1.98;1.98;
61804;PMS7003;47725;47.912;7.356;2023-07-28T10:21:43;1.98;1.98;
61804;PMS7003;47725;47.912;7.356;2023-07-28T10:25:44;2.97;2.97;
61804;PMS7003;47725;47.912;7.356;2023-07-28T10:29:46;2.97;2.97;
61804;PMS7003;47725;47.912;7.356;2023-07-28T10:33:44;2.97;2.97;
61804;PMS7003;47725;47.912;7.356;2023-07-28T10:37:44;2.97;2.97;
61804;PMS7003;47725;47.912;7.356;2023-07-28T10:42:02;2.97;2.97;
61804;PMS7003;47725;47.912;7.356;2023-07-28T10:45:43;2.96;2.96;
61804;PMS7003;47725;47.912;7.356;2023-07-28T10:49:43;2.96;2.96;
61804;PMS7003;47725;47.912;7.356;2023-07-28T10:53:43;3.95;2.97;
61804;PMS7003;47725;47.912;7.356;2023-07-28T10:57:44;3.95;2.97;
61804;PMS7003;47725;47.912;7.356;2023-07-28T11:01:43;3.95;2.97;
61804;PMS7003;47725;47.912;7.356;2023-07-28T11:05:43;2.96;1.98;
61804;PMS7003;47725;47.912;7.356;2023-07-28T11:09:43;2.96;1.98;
61804;PMS7003;47725;47.912;7.356;2023-07-28T11:13:43;2.97;2.97;
61804;PMS7003;47725;47.912;7.356;2023-07-28T11:17:44;2.97;2.97;
61804;PMS7003;47725;47.912;7.356;2023-07-28T11:21:43;2.97;2.97;
61804;PMS7003;47725;47.912;7.356;2023-07-28T11:25:43;3.95;3.95;
61804;PMS7003;47725;47.912;7.356;2023-07-28T11:29:43;3.95;3.95;
61804;PMS7003;47725;47.912;7.356;2023-07-28T11:33:43;0.99;0.99;
61804;PMS7003;47725;47.912;7.356;2023-07-28T11:37:44;0.99;0.99;
61804;PMS7003;47725;47.912;7.356;2023-07-28T11:41:43;0.99;0.99;
61804;PMS7003;47725;47.912;7.356;2023-07-28T11:45:43;2.97;2.97;
61804;PMS7003;47725;47.912;7.356;2023-07-28T11:49:47;2.97;2.97;
61804;PMS7003;47725;47.912;7.356;2023-07-28T11:53:43;1.98;1.98;
61804;PMS7003;47725;47.912;7.356;2023-07-28T11:57:43;1.98;1.98;
61804;PMS7003;47725;47.912;7.356;2023-07-28T12:01:59;1.98;1.98;
61804;PMS7003;47725;47.912;7.356;2023-07-28T12:05:58;0.00;0.00;
61804;PMS7003;47725;47.912;7.356;2023-07-28T12:09:49;0.00;0.00;
61804;PMS7003;47725;47.912;7.356;2023-07-28T12:13:52;0.00;0.00;
61804;PMS7003;47725;47.912;7.356;2023-07-28T12:17:59;0.00;0.00;
61804;PMS7003;47725;47.912;7.356;2023-07-28T12:21:43;0.00;0.00;
61804;PMS7003;47725;47.912;7.356;2023-07-28T12:25:43;0.00;0.00;
61804;PMS7003;47725;47.912;7.356;2023-07-28T12:29:43;0.00;0.00;
61804;PMS7003;47725;47.912;7.356;2023-07-28T12:33:43;0.00;0.00;
61804;PMS7003;47725;47.912;7.356;2023-07-28T12:37:43;0.00;0.00;
61804;PMS7003;47725;47.912;7.356;2023-07-28T12:41:43;0.00;0.00;
61804;PMS7003;47725;47.912;7.356;2023-07-28T12:45:43;0.00;0.00;
61804;PMS7003;47725;47.912;7.356;2023-07-28T12:49:43;0.00;0.00;
61804;PMS7003;47725;47.912;7.356;2023-07-28T12:53:43;0.00;0.00;
61804;PMS7003;47725;47.912;7.356;2023-07-28T12:57:43;0.00;0.00;
61804;PMS7003;47725;47.912;7.356;2023-07-28T13:01:43;0.00;0.00;
61804;PMS7003;47725;47.912;7.356;2023-07-28T13:05:43;0.00;0.00;
61804;PMS7003;47725;47.912;7.356;2023-07-28T13:09:43;0.00;0.00;
61804;PMS7003;47725;47.912;7.356;2023-07-28T13:13:43;0.00;0.00;
61804;PMS7003;47725;47.912;7.356;2023-07-28T13:17:43;0.00;0.00;
61804;PMS7003;47725;47.912;7.356;2023-07-28T13:21:43;0.00;0.00;
61804;PMS7003;47725;47.912;7.356;2023-07-28T13:25:43;0.00;0.00;
61804;PMS7003;47725;47.912;7.356;2023-07-28T13:29:43;0.00;0.00;
61804;PMS7003;47725;47.912;7.356;2023-07-28T13:33:43;0.00;0.00;
61804;PMS7003;47725;47.912;7.356;2023-07-28T13:37:43;0.00;0.00;
61804;PMS7003;47725;47.912;7.356;2023-07-28T13:41:43;0.00;0.00;
61804;PMS7003;47725;47.912;7.356;2023-07-28T13:45:43;0.00;0.00;
61804;PMS7003;47725;47.912;7.356;2023-07-28T13:49:43;0.00;0.00;
61804;PMS7003;47725;47.912;7.356;2023-07-28T13:53:43;0.98;0.00;
61804;PMS7003;47725;47.912;7.356;2023-07-28T13:57:43;0.98;0.00;
61804;PMS7003;47725;47.912;7.356;2023-07-28T14:01:43;0.98;0.00;
61804;PMS7003;47725;47.912;7.356;2023-07-28T14:05:44;0.00;0.00;
61804;PMS7003;47725;47.912;7.356;2023-07-28T14:09:43;0.00;0.00;
61804;PMS7003;47725;47.912;7.356;2023-07-28T14:13:43;0.00;0.00;
61804;PMS7003;47725;47.912;7.356;2023-07-28T14:17:08;0.00;0.00;
61804;PMS7003;47725;47.912;7.356;2023-07-28T14:21:08;0.00;0.00;
61804;PMS7003;47725;47.912;7.356;2023-07-28T14:25:08;0.00;0.00;
61804;PMS7003;47725;47.912;7.356;2023-07-28T14:29:08;0.99;0.00;
61804;PMS7003;47725;47.912;7.356;2023-07-28T14:33:08;0.99;0.00;
61804;PMS7003;47725;47.912;7.356;2023-07-28T14:37:08;0.00;0.00;
61804;PMS7003;47725;47.912;7.356;2023-07-28T14:41:08;0.00;0.00;
61804;PMS7003;47725;47.912;7.356;2023-07-28T14:45:08;0.00;0.00;
61804;PMS7003;47725;47.912;7.356;2023-07-28T14:49:08;0.00;0.00;
61804;PMS7003;47725;47.912;7.356;2023-07-28T14:57:08;0.98;0.98;
61804;PMS7003;47725;47.912;7.356;2023-07-28T15:01:09;0.98;0.98;
61804;PMS7003;47725;47.912;7.356;2023-07-28T15:05:08;0.98;0.98;
61804;PMS7003;47725;47.912;7.356;2023-07-28T15:09:08;0.98;0.98;
61804;PMS7003;47725;47.912;7.356;2023-07-28T15:13:08;0.98;0.98;
61804;PMS7003;47725;47.912;7.356;2023-07-28T15:17:08;0.97;0.00;
61804;PMS7003;47725;47.912;7.356;2023-07-28T15:21:08;0.97;0.00;
61804;PMS7003;47725;47.912;7.356;2023-07-28T15:25:08;0.97;0.00;
61804;PMS7003;47725;47.912;7.356;2023-07-28T15:29:08;0.00;0.00;
61804;PMS7003;47725;47.912;7.356;2023-07-28T15:33:08;0.00;0.00;
61804;PMS7003;47725;47.912;7.356;2023-07-28T15:37:08;0.96;0.96;
61804;PMS7003;47725;47.912;7.356;2023-07-28T15:41:08;0.96;0.96;
61804;PMS7003;47725;47.912;7.356;2023-07-28T15:45:08;0.96;0.96;
61804;PMS7003;47725;47.912;7.356;2023-07-28T15:49:08;0.00;0.00;
61804;PMS7003;47725;47.912;7.356;2023-07-28T15:53:08;0.00;0.00;
61804;PMS7003;47725;47.912;7.356;2023-07-28T15:57:08;0.00;0.00;
61804;PMS7003;47725;47.912;7.356;2023-07-28T16:01:08;0.00;0.00;
61804;PMS7003;47725;47.912;7.356;2023-07-28T16:05:08;0.00;0.00;
61804;PMS7003;47725;47.912;7.356;2023-07-28T16:09:08;0.00;0.00;
61804;PMS7003;47725;47.912;7.356;2023-07-28T16:13:08;0.00;0.00;
61804;PMS7003;47725;47.912;7.356;2023-07-28T16:17:08;0.00;0.00;
61804;PMS7003;47725;47.912;7.356;2023-07-28T16:21:08;0.00;0.00;
61804;PMS7003;47725;47.912;7.356;2023-07-28T16:25:08;0.00;0.00;
61804;PMS7003;47725;47.912;7.356;2023-07-28T16:29:08;0.00;0.00;
61804;PMS7003;47725;47.912;7.356;2023-07-28T16:33:09;0.00;0.00;
61804;PMS7003;47725;47.912;7.356;2023-07-28T16:37:08;0.00;0.00;
61804;PMS7003;47725;47.912;7.356;2023-07-28T16:41:08;0.00;0.00;
61804;PMS7003;47725;47.912;7.356;2023-07-28T16:45:08;0.00;0.00;
61804;PMS7003;47725;47.912;7.356;2023-07-28T16:49:08;0.00;0.00;
61804;PMS7003;47725;47.912;7.356;2023-07-28T16:53:08;0.00;0.00;
61804;PMS7003;47725;47.912;7.356;2023-07-28T16:57:08;0.00;0.00;
61804;PMS7003;47725;47.912;7.356;2023-07-28T17:01:08;0.00;0.00;
61804;PMS7003;47725;47.912;7.356;2023-07-28T17:05:08;0.00;0.00;
61804;PMS7003;47725;47.912;7.356;2023-07-28T17:09:08;0.00;0.00;
61804;PMS7003;47725;47.912;7.356;2023-07-28T17:13:08;0.00;0.00;
61804;PMS7003;47725;47.912;7.356;2023-07-28T17:17:08;0.00;0.00;
61804;PMS7003;47725;47.912;7.356;2023-07-28T17:21:08;0.00;0.00;
61804;PMS7003;47725;47.912;7.356;2023-07-28T17:25:08;0.00;0.00;
61804;PMS7003;47725;47.912;7.356;2023-07-28T17:29:08;0.00;0.00;
61804;PMS7003;47725;47.912;7.356;2023-07-28T17:33:08;0.00;0.00;
61804;PMS7003;47725;47.912;7.356;2023-07-28T17:37:08;0.00;0.00;
61804;PMS7003;47725;47.912;7.356;2023-07-28T17:41:08;0.00;0.00;
61804;PMS7003;47725;47.912;7.356;2023-07-28T17:45:08;0.00;0.00;
61804;PMS7003;47725;47.912;7.356;2023-07-28T17:49:08;0.00;0.00;
61804;PMS7003;47725;47.912;7.356;2023-07-28T17:53:08;0.00;0.00;
61804;PMS7003;47725;47.912;7.356;2023-07-28T17:57:08;0.95;0.95;
61804;PMS7003;47725;47.912;7.356;2023-07-28T18:01:08;0.95;0.95;
61804;PMS7003;47725;47.912;7.356;2023-07-28T18:05:08;0.95;0.95;
61804;PMS7003;47725;47.912;7.356;2023-07-28T18:09:08;0.00;0.00;
61804;PMS7003;47725;47.912;7.356;2023-07-28T18:13:08;0.00;0.00;
61804;PMS7003;47725;47.912;7.356;2023-07-28T18:17:08;1.87;0.00;
61804;PMS7003;47725;47.912;7.356;2023-07-28T18:21:08;1.87;0.00;
61804;PMS7003;47725;47.912;7.356;2023-07-28T18:25:08;1.87;0.00;
61804;PMS7003;47725;47.912;7.356;2023-07-28T18:29:08;0.00;0.00;
61804;PMS7003;47725;47.912;7.356;2023-07-28T18:33:08;0.00;0.00;
61804;PMS7003;47725;47.912;7.356;2023-07-28T18:37:08;0.00;0.00;
61804;PMS7003;47725;47.912;7.356;2023-07-28T18:41:08;0.00;0.00;
61804;PMS7003;47725;47.912;7.356;2023-07-28T18:45:08;0.00;0.00;
61804;PMS7003;47725;47.912;7.356;2023-07-28T18:49:08;0.00;0.00;
61804;PMS7003;47725;47.912;7.356;2023-07-28T18:53:08;0.00;0.00;
61804;PMS7003;47725;47.912;7.356;2023-07-28T18:57:08;0.00;0.00;
61804;PMS7003;47725;47.912;7.356;2023-07-28T19:01:08;0.00;0.00;
61804;PMS7003;47725;47.912;7.356;2023-07-28T19:05:08;0.00;0.00;
61804;PMS7003;47725;47.912;7.356;2023-07-28T19:09:08;0.00;0.00;
61804;PMS7003;47725;47.912;7.356;2023-07-28T19:13:08;0.00;0.00;
61804;PMS7003;47725;47.912;7.356;2023-07-28T19:17:08;0.00;0.00;
61804;PMS7003;47725;47.912;7.356;2023-07-28T19:21:08;0.00;0.00;
61804;PMS7003;47725;47.912;7.356;2023-07-28T19:25:08;0.00;0.00;
61804;PMS7003;47725;47.912;7.356;2023-07-28T19:29:08;0.00;0.00;
61804;PMS7003;47725;47.912;7.356;2023-07-28T19:33:08;0.00;0.00;
61804;PMS7003;47725;47.912;7.356;2023-07-28T19:37:08;0.00;0.00;
61804;PMS7003;47725;47.912;7.356;2023-07-28T19:41:08;0.00;0.00;
61804;PMS7003;47725;47.912;7.356;2023-07-28T19:45:08;0.00;0.00;
61804;PMS7003;47725;47.912;7.356;2023-07-28T19:49:08;1.81;0.90;
61804;PMS7003;47725;47.912;7.356;2023-07-28T19:53:08;1.81;0.90;
61804;PMS7003;47725;47.912;7.356;2023-07-28T19:57:08;0.00;0.00;
61804;PMS7003;47725;47.912;7.356;2023-07-28T20:01:07;0.00;0.00;
61804;PMS7003;47725;47.912;7.356;2023-07-28T20:05:08;0.00;0.00;
61804;PMS7003;47725;47.912;7.356;2023-07-28T20:09:07;0.00;0.00;
61804;PMS7003;47725;47.912;7.356;2023-07-28T20:13:07;0.00;0.00;
61804;PMS7003;47725;47.912;7.356;2023-07-28T20:17:08;0.00;0.00;
61804;PMS7003;47725;47.912;7.356;2023-07-28T20:21:07;0.00;0.00;
61804;PMS7003;47725;47.912;7.356;2023-07-28T20:25:08;0.00;0.00;
61804;PMS7003;47725;47.912;7.356;2023-07-28T20:29:07;0.00;0.00;
61804;PMS7003;47725;47.912;7.356;2023-07-28T20:33:07;0.00;0.00;
61804;PMS7003;47725;47.912;7.356;2023-07-28T20:37:07;0.90;0.90;
61804;PMS7003;47725;47.912;7.356;2023-07-28T20:41:07;0.90;0.90;
61804;PMS7003;47725;47.912;7.356;2023-07-28T20:45:08;0.90;0.90;
61804;PMS7003;47725;47.912;7.356;2023-07-28T20:49:07;0.00;0.00;
61804;PMS7003;47725;47.912;7.356;2023-07-28T20:53:07;0.00;0.00;
61804;PMS7003;47725;47.912;7.356;2023-07-28T20:57:08;0.00;0.00;
61804;PMS7003;47725;47.912;7.356;2023-07-28T21:01:08;0.00;0.00;
61804;PMS7003;47725;47.912;7.356;2023-07-28T21:05:08;0.00;0.00;
61804;PMS7003;47725;47.912;7.356;2023-07-28T21:09:07;1.78;1.78;
61804;PMS7003;47725;47.912;7.356;2023-07-28T21:13:07;1.78;1.78;
61804;PMS7003;47725;47.912;7.356;2023-07-28T21:17:07;1.77;1.77;
61804;PMS7003;47725;47.912;7.356;2023-07-28T21:21:07;1.77;1.77;
61804;PMS7003;47725;47.912;7.356;2023-07-28T21:25:08;1.77;1.77;
61804;PMS7003;47725;47.912;7.356;2023-07-28T21:29:07;0.88;0.88;
61804;PMS7003;47725;47.912;7.356;2023-07-28T21:33:07;0.88;0.88;
61804;PMS7003;47725;47.912;7.356;2023-07-28T21:37:07;0.00;0.00;
61804;PMS7003;47725;47.912;7.356;2023-07-28T21:41:07;0.00;0.00;
61804;PMS7003;47725;47.912;7.356;2023-07-28T21:45:08;0.00;0.00;
61804;PMS7003;47725;47.912;7.356;2023-07-28T21:49:07;0.00;0.00;
61804;PMS7003;47725;47.912;7.356;2023-07-28T21:53:07;0.00;0.00;
61804;PMS7003;47725;47.912;7.356;2023-07-28T21:57:07;0.00;0.00;
61804;PMS7003;47725;47.912;7.356;2023-07-28T22:01:07;0.00;0.00;
61804;PMS7003;47725;47.912;7.356;2023-07-28T22:05:08;0.00;0.00;
61804;PMS7003;47725;47.912;7.356;2023-07-28T22:09:07;0.00;0.00;
61804;PMS7003;47725;47.912;7.356;2023-07-28T22:13:08;0.00;0.00;
61804;PMS7003;47725;47.912;7.356;2023-07-28T22:17:07;0.00;0.00;
61804;PMS7003;47725;47.912;7.356;2023-07-28T22:21:07;0.00;0.00;
61804;PMS7003;47725;47.912;7.356;2023-07-28T22:25:08;0.00;0.00;
61804;PMS7003;47725;47.912;7.356;2023-07-28T22:29:07;0.00;0.00;
61804;PMS7003;47725;47.912;7.356;2023-07-28T22:33:07;0.00;0.00;
61804;PMS7003;47725;47.912;7.356;2023-07-28T22:37:07;0.00;0.00;
61804;PMS7003;47725;47.912;7.356;2023-07-28T22:41:07;0.00;0.00;
61804;PMS7003;47725;47.912;7.356;2023-07-28T22:45:08;0.00;0.00;
61804;PMS7003;47725;47.912;7.356;2023-07-28T22:49:07;0.00;0.00;
61804;PMS7003;47725;47.912;7.356;2023-07-28T22:53:07;0.00;0.00;
61804;PMS7003;47725;47.912;7.356;2023-07-28T22:57:07;0.00;0.00;
61804;PMS7003;47725;47.912;7.356;2023-07-28T23:01:07;0.00;0.00;
61804;PMS7003;47725;47.912;7.356;2023-07-28T23:05:08;0.00;0.00;
61804;PMS7003;47725;47.912;7.356;2023-07-28T23:09:07;0.00;0.00;
61804;PMS7003;47725;47.912;7.356;2023-07-28T23:13:07;0.00;0.00;
61804;PMS7003;47725;47.912;7.356;2023-07-28T23:17:07;0.00;0.00;
61804;PMS7003;47725;47.912;7.356;2023-07-28T23:21:07;0.00;0.00;
61804;PMS7003;47725;47.912;7.356;2023-07-28T23:25:08;0.00;0.00;
61804;PMS7003;47725;47.912;7.356;2023-07-28T23:29:07;0.87;0.00;
61804;PMS7003;47725;47.912;7.356;2023-07-28T23:33:07;0.87;0.00;
61804;PMS7003;47725;47.912;7.356;2023-07-28T23:37:07;0.00;0.00;
61804;PMS7003;47725;47.912;7.356;2023-07-28T23:41:07;0.00;0.00;
61804;PMS7003;47725;47.912;7.356;2023-07-28T23:45:09;0.00;0.00;
61804;PMS7003;47725;47.912;7.356;2023-07-28T23:49:07;0.00;0.00;
61804;PMS7003;47725;47.912;7.356;2023-07-28T23:53:07;0.00;0.00;
61804;PMS7003;47725;47.912;7.356;2023-07-28T23:57:07;0.00;0.00;
